Quick Links (Output Below):   Max & Min Temps   /   Climate Reports   /   Zone Forecasts
River Forecasts   /   Forestry Forecasts   /   Aviation Forecasts   /   Radars   /   Features

Terminal Aerodrome Forecast (Fort Smith)

Pick a Site:
Arkadelphia | El Dorado | Fayetteville | Fort Smith | Harrison | Highfill | Hot Springs | Jonesboro
Little Rock | Monticello | Mountain Home | Pine Bluff | Texarkana
 Forecast 

KFSM 030520Z 0306/0406 10003KT P6SM SKC
     FM031700 17005KT P6SM SCT050=


 Latest METARs (Observations) 
How to Decode METARs
09Z KFSM 030853Z 05004KT 10SM CLR 23/19 A2998 RMK AO2 SLP146 T02280194
         53000
         
08Z KFSM 030753Z 08004KT 10SM CLR 23/19 A2998 RMK AO2 SLP145
         T02330194
         
07Z KFSM 030653Z 06005KT 10SM CLR 23/19 A2998 RMK AO2 SLP146
         T02330194
         
06Z KFSM 030553Z 07005KT 10SM CLR 23/19 A2998 RMK AO2 SLP146 T02330194
         10322 20233 403440206 51003
         
05Z KFSM 030453Z 04004KT 10SM CLR 26/18 A2998 RMK AO2 SLP144
         T02560183
         
04Z KFSM 030353Z 00000KT 10SM CLR 27/18 A2998 RMK AO2 SLP145
         T02670178
         
02Z KFSM 030153Z 15003KT 10SM FEW080 28/18 A2995 RMK AO2 SLP136
         T02830178
         
01Z KFSM 030053Z 00000KT 10SM BKN070 29/19 A2993 RMK AO2 SLP130
         T02940194
         
00Z KFSM 022353Z 12006KT 10SM SCT070 32/17 A2994 RMK AO2 SLP131
         T03220172 10344 20311 56015
         
***** Today's Observations (Above) *****


23Z KFSM 022253Z 14003KT 10SM SCT070 33/17 A2995 RMK AO2 SLP134
         T03330167
         
***** Yesterday's Observations (Above) *****


Back to Main Page
http://www.srh.noaa.gov/lzk/qfcst.php

USA.gov is the U.S. government's official web portal to all federal, state and local government web resources and services.